sensor_id;sensor_type;location;lat;lon;timestamp;P1;durP1;ratioP1;P2;durP2;ratioP2
10446;SDS011;5271;44.422;26.092;2023-03-14T00:02:25;0.90;;;0.90;;
10446;SDS011;5271;44.422;26.092;2023-03-14T00:04:53;0.90;;;0.90;;
10446;SDS011;5271;44.422;26.092;2023-03-14T00:07:20;0.90;;;0.90;;
10446;SDS011;5271;44.422;26.092;2023-03-14T00:09:50;1.00;;;1.00;;
10446;SDS011;5271;44.422;26.092;2023-03-14T00:12:18;0.90;;;0.90;;
10446;SDS011;5271;44.422;26.092;2023-03-14T00:14:44;1.00;;;1.00;;
10446;SDS011;5271;44.422;26.092;2023-03-14T00:17:11;1.00;;;1.00;;
10446;SDS011;5271;44.422;26.092;2023-03-14T00:19:38;1.03;;;1.03;;
10446;SDS011;5271;44.422;26.092;2023-03-14T00:22:05;1.00;;;1.00;;
10446;SDS011;5271;44.422;26.092;2023-03-14T00:24:32;1.00;;;1.00;;
10446;SDS011;5271;44.422;26.092;2023-03-14T00:27:01;1.00;;;1.00;;
10446;SDS011;5271;44.422;26.092;2023-03-14T00:29:27;1.00;;;1.00;;
10446;SDS011;5271;44.422;26.092;2023-03-14T00:31:54;1.00;;;1.00;;
10446;SDS011;5271;44.422;26.092;2023-03-14T00:34:21;1.00;;;1.00;;
10446;SDS011;5271;44.422;26.092;2023-03-14T00:36:48;1.00;;;1.00;;
10446;SDS011;5271;44.422;26.092;2023-03-14T00:39:15;0.90;;;0.90;;
10446;SDS011;5271;44.422;26.092;2023-03-14T00:41:41;1.00;;;1.00;;
10446;SDS011;5271;44.422;26.092;2023-03-14T00:44:10;1.00;;;1.00;;
10446;SDS011;5271;44.422;26.092;2023-03-14T00:46:37;0.90;;;0.90;;
10446;SDS011;5271;44.422;26.092;2023-03-14T00:49:03;1.00;;;1.00;;
10446;SDS011;5271;44.422;26.092;2023-03-14T00:51:30;1.00;;;1.00;;
10446;SDS011;5271;44.422;26.092;2023-03-14T00:53:57;1.10;;;1.10;;
10446;SDS011;5271;44.422;26.092;2023-03-14T00:56:25;1.10;;;1.10;;
10446;SDS011;5271;44.422;26.092;2023-03-14T00:58:53;1.00;;;1.00;;
10446;SDS011;5271;44.422;26.092;2023-03-14T01:01:21;1.00;;;1.00;;
10446;SDS011;5271;44.422;26.092;2023-03-14T01:03:50;1.10;;;1.10;;
10446;SDS011;5271;44.422;26.092;2023-03-14T01:06:18;1.00;;;1.00;;
10446;SDS011;5271;44.422;26.092;2023-03-14T01:08:46;1.10;;;1.10;;
10446;SDS011;5271;44.422;26.092;2023-03-14T01:11:14;1.10;;;1.10;;
10446;SDS011;5271;44.422;26.092;2023-03-14T01:13:43;1.00;;;1.00;;
10446;SDS011;5271;44.422;26.092;2023-03-14T01:16:11;1.03;;;1.03;;
10446;SDS011;5271;44.422;26.092;2023-03-14T01:18:40;1.20;;;1.20;;
10446;SDS011;5271;44.422;26.092;2023-03-14T01:21:10;1.00;;;1.00;;
10446;SDS011;5271;44.422;26.092;2023-03-14T01:23:38;1.10;;;1.10;;
10446;SDS011;5271;44.422;26.092;2023-03-14T01:26:06;1.00;;;1.00;;
10446;SDS011;5271;44.422;26.092;2023-03-14T01:28:34;1.10;;;1.10;;
10446;SDS011;5271;44.422;26.092;2023-03-14T01:31:02;1.20;;;1.20;;
10446;SDS011;5271;44.422;26.092;2023-03-14T01:33:29;1.10;;;1.10;;
10446;SDS011;5271;44.422;26.092;2023-03-14T01:35:57;1.17;;;1.17;;
10446;SDS011;5271;44.422;26.092;2023-03-14T01:38:27;1.10;;;1.10;;
10446;SDS011;5271;44.422;26.092;2023-03-14T01:40:54;1.10;;;1.10;;
10446;SDS011;5271;44.422;26.092;2023-03-14T01:43:21;1.00;;;1.00;;
10446;SDS011;5271;44.422;26.092;2023-03-14T01:51:45;1.00;;;1.00;;
10446;SDS011;5271;44.422;26.092;2023-03-14T01:54:17;1.20;;;1.20;;
10446;SDS011;5271;44.422;26.092;2023-03-14T01:56:48;1.10;;;1.10;;
10446;SDS011;5271;44.422;26.092;2023-03-14T01:59:19;1.10;;;1.10;;
10446;SDS011;5271;44.422;26.092;2023-03-14T02:01:46;1.03;;;1.03;;
10446;SDS011;5271;44.422;26.092;2023-03-14T02:04:15;1.20;;;1.20;;
10446;SDS011;5271;44.422;26.092;2023-03-14T02:06:49;1.10;;;1.10;;
10446;SDS011;5271;44.422;26.092;2023-03-14T02:09:19;1.20;;;1.20;;
10446;SDS011;5271;44.422;26.092;2023-03-14T02:11:46;1.20;;;1.20;;
10446;SDS011;5271;44.422;26.092;2023-03-14T02:14:16;1.10;;;1.10;;
10446;SDS011;5271;44.422;26.092;2023-03-14T02:16:51;1.20;;;1.20;;
10446;SDS011;5271;44.422;26.092;2023-03-14T02:19:19;1.10;;;1.10;;
10446;SDS011;5271;44.422;26.092;2023-03-14T02:21:56;1.10;;;1.10;;
10446;SDS011;5271;44.422;26.092;2023-03-14T02:24:30;1.20;;;1.20;;
10446;SDS011;5271;44.422;26.092;2023-03-14T02:27:07;1.10;;;1.10;;
10446;SDS011;5271;44.422;26.092;2023-03-14T02:29:39;1.10;;;1.10;;
10446;SDS011;5271;44.422;26.092;2023-03-14T02:32:12;1.10;;;1.10;;
10446;SDS011;5271;44.422;26.092;2023-03-14T02:34:40;1.10;;;1.10;;
10446;SDS011;5271;44.422;26.092;2023-03-14T02:37:11;1.20;;;1.20;;
10446;SDS011;5271;44.422;26.092;2023-03-14T02:39:41;1.10;;;1.10;;
10446;SDS011;5271;44.422;26.092;2023-03-14T02:42:12;1.20;;;1.20;;
10446;SDS011;5271;44.422;26.092;2023-03-14T02:44:47;1.10;;;1.10;;
10446;SDS011;5271;44.422;26.092;2023-03-14T02:47:16;1.10;;;1.10;;
10446;SDS011;5271;44.422;26.092;2023-03-14T02:49:44;1.00;;;1.00;;
10446;SDS011;5271;44.422;26.092;2023-03-14T02:52:12;1.20;;;1.20;;
10446;SDS011;5271;44.422;26.092;2023-03-14T02:54:39;1.03;;;1.03;;
10446;SDS011;5271;44.422;26.092;2023-03-14T02:57:06;1.07;;;1.07;;
10446;SDS011;5271;44.422;26.092;2023-03-14T02:59:34;1.10;;;1.10;;
10446;SDS011;5271;44.422;26.092;2023-03-14T03:02:01;1.00;;;1.00;;
10446;SDS011;5271;44.422;26.092;2023-03-14T03:04:28;1.00;;;1.00;;
10446;SDS011;5271;44.422;26.092;2023-03-14T03:06:55;1.10;;;1.10;;
10446;SDS011;5271;44.422;26.092;2023-03-14T03:09:21;1.10;;;1.10;;
10446;SDS011;5271;44.422;26.092;2023-03-14T03:11:48;1.17;;;1.17;;
10446;SDS011;5271;44.422;26.092;2023-03-14T03:14:15;1.10;;;1.10;;
10446;SDS011;5271;44.422;26.092;2023-03-14T03:16:43;1.10;;;1.10;;
10446;SDS011;5271;44.422;26.092;2023-03-14T03:19:10;1.00;;;1.00;;
10446;SDS011;5271;44.422;26.092;2023-03-14T03:21:38;1.10;;;1.10;;
10446;SDS011;5271;44.422;26.092;2023-03-14T03:24:05;1.10;;;1.10;;
10446;SDS011;5271;44.422;26.092;2023-03-14T03:26:33;1.10;;;1.10;;
10446;SDS011;5271;44.422;26.092;2023-03-14T03:28:59;1.20;;;1.20;;
10446;SDS011;5271;44.422;26.092;2023-03-14T03:31:26;1.10;;;1.10;;
10446;SDS011;5271;44.422;26.092;2023-03-14T03:33:55;1.10;;;1.10;;
10446;SDS011;5271;44.422;26.092;2023-03-14T03:36:23;1.20;;;1.20;;
10446;SDS011;5271;44.422;26.092;2023-03-14T03:38:52;1.20;;;1.20;;
10446;SDS011;5271;44.422;26.092;2023-03-14T03:41:18;1.10;;;1.10;;
10446;SDS011;5271;44.422;26.092;2023-03-14T03:43:45;1.10;;;1.10;;
10446;SDS011;5271;44.422;26.092;2023-03-14T03:46:12;1.20;;;1.20;;
10446;SDS011;5271;44.422;26.092;2023-03-14T03:48:39;1.20;;;1.20;;
10446;SDS011;5271;44.422;26.092;2023-03-14T03:51:07;1.13;;;1.13;;
10446;SDS011;5271;44.422;26.092;2023-03-14T03:53:38;1.10;;;1.10;;
10446;SDS011;5271;44.422;26.092;2023-03-14T03:56:06;1.20;;;1.20;;
10446;SDS011;5271;44.422;26.092;2023-03-14T03:58:33;1.10;;;1.10;;
10446;SDS011;5271;44.422;26.092;2023-03-14T04:01:00;1.10;;;1.10;;
10446;SDS011;5271;44.422;26.092;2023-03-14T04:03:27;1.30;;;1.30;;
10446;SDS011;5271;44.422;26.092;2023-03-14T04:05:57;1.20;;;1.20;;
10446;SDS011;5271;44.422;26.092;2023-03-14T04:08:26;1.20;;;1.20;;
10446;SDS011;5271;44.422;26.092;2023-03-14T04:10:54;1.20;;;1.20;;
10446;SDS011;5271;44.422;26.092;2023-03-14T04:13:22;1.10;;;1.10;;
10446;SDS011;5271;44.422;26.092;2023-03-14T04:15:49;1.20;;;1.20;;
10446;SDS011;5271;44.422;26.092;2023-03-14T04:18:17;1.10;;;1.10;;
10446;SDS011;5271;44.422;26.092;2023-03-14T04:20:44;1.20;;;1.20;;
10446;SDS011;5271;44.422;26.092;2023-03-14T04:23:10;1.20;;;1.20;;
10446;SDS011;5271;44.422;26.092;2023-03-14T04:25:39;1.20;;;1.20;;
10446;SDS011;5271;44.422;26.092;2023-03-14T04:28:06;1.20;;;1.20;;
10446;SDS011;5271;44.422;26.092;2023-03-14T04:30:33;1.20;;;1.20;;
10446;SDS011;5271;44.422;26.092;2023-03-14T04:32:59;1.20;;;1.20;;
10446;SDS011;5271;44.422;26.092;2023-03-14T04:35:26;1.20;;;1.20;;
10446;SDS011;5271;44.422;26.092;2023-03-14T04:37:53;1.20;;;1.20;;
10446;SDS011;5271;44.422;26.092;2023-03-14T04:40:20;1.20;;;1.20;;
10446;SDS011;5271;44.422;26.092;2023-03-14T04:42:48;1.20;;;1.20;;
10446;SDS011;5271;44.422;26.092;2023-03-14T04:45:15;1.20;;;1.20;;
10446;SDS011;5271;44.422;26.092;2023-03-14T04:47:42;1.10;;;1.10;;
10446;SDS011;5271;44.422;26.092;2023-03-14T04:50:10;1.20;;;1.20;;
10446;SDS011;5271;44.422;26.092;2023-03-14T04:52:37;1.20;;;1.20;;
10446;SDS011;5271;44.422;26.092;2023-03-14T04:55:04;1.20;;;1.20;;
10446;SDS011;5271;44.422;26.092;2023-03-14T04:57:31;1.20;;;1.20;;
10446;SDS011;5271;44.422;26.092;2023-03-14T05:00:00;1.27;;;1.27;;
10446;SDS011;5271;44.422;26.092;2023-03-14T05:02:31;1.10;;;1.10;;
10446;SDS011;5271;44.422;26.092;2023-03-14T05:04:58;1.20;;;1.20;;
10446;SDS011;5271;44.422;26.092;2023-03-14T05:07:24;1.20;;;1.20;;
10446;SDS011;5271;44.422;26.092;2023-03-14T05:09:51;1.10;;;1.10;;
10446;SDS011;5271;44.422;26.092;2023-03-14T05:12:19;1.20;;;1.20;;
10446;SDS011;5271;44.422;26.092;2023-03-14T05:14:46;1.27;;;1.27;;
10446;SDS011;5271;44.422;26.092;2023-03-14T05:17:14;1.20;;;1.20;;
10446;SDS011;5271;44.422;26.092;2023-03-14T05:19:41;1.10;;;1.10;;
10446;SDS011;5271;44.422;26.092;2023-03-14T05:22:08;1.20;;;1.20;;
10446;SDS011;5271;44.422;26.092;2023-03-14T05:24:36;1.17;;;1.17;;
10446;SDS011;5271;44.422;26.092;2023-03-14T05:27:03;1.10;;;1.10;;
10446;SDS011;5271;44.422;26.092;2023-03-14T05:29:30;1.20;;;1.20;;
10446;SDS011;5271;44.422;26.092;2023-03-14T05:31:57;1.17;;;1.17;;
10446;SDS011;5271;44.422;26.092;2023-03-14T05:34:25;1.20;;;1.20;;
10446;SDS011;5271;44.422;26.092;2023-03-14T05:36:52;1.20;;;1.20;;
10446;SDS011;5271;44.422;26.092;2023-03-14T05:39:20;1.20;;;1.20;;
10446;SDS011;5271;44.422;26.092;2023-03-14T05:41:47;1.20;;;1.20;;
10446;SDS011;5271;44.422;26.092;2023-03-14T05:44:14;1.30;;;1.30;;
10446;SDS011;5271;44.422;26.092;2023-03-14T05:46:41;1.20;;;1.20;;
10446;SDS011;5271;44.422;26.092;2023-03-14T05:49:08;1.10;;;1.10;;
10446;SDS011;5271;44.422;26.092;2023-03-14T05:51:36;1.20;;;1.20;;
10446;SDS011;5271;44.422;26.092;2023-03-14T05:54:03;1.27;;;1.27;;
10446;SDS011;5271;44.422;26.092;2023-03-14T05:56:30;1.20;;;1.20;;
10446;SDS011;5271;44.422;26.092;2023-03-14T05:58:58;1.13;;;1.13;;
10446;SDS011;5271;44.422;26.092;2023-03-14T06:01:26;1.17;;;1.17;;
10446;SDS011;5271;44.422;26.092;2023-03-14T06:03:53;1.20;;;1.20;;
10446;SDS011;5271;44.422;26.092;2023-03-14T06:06:20;1.20;;;1.20;;
10446;SDS011;5271;44.422;26.092;2023-03-14T06:08:49;1.30;;;1.30;;
10446;SDS011;5271;44.422;26.092;2023-03-14T06:11:16;1.30;;;1.30;;
10446;SDS011;5271;44.422;26.092;2023-03-14T06:13:42;1.20;;;1.20;;
10446;SDS011;5271;44.422;26.092;2023-03-14T06:16:09;1.27;;;1.27;;
10446;SDS011;5271;44.422;26.092;2023-03-14T06:18:36;1.30;;;1.30;;
10446;SDS011;5271;44.422;26.092;2023-03-14T06:21:03;1.17;;;1.17;;
10446;SDS011;5271;44.422;26.092;2023-03-14T06:23:30;1.20;;;1.20;;
10446;SDS011;5271;44.422;26.092;2023-03-14T06:25:59;1.20;;;1.20;;
10446;SDS011;5271;44.422;26.092;2023-03-14T06:28:26;1.20;;;1.20;;
10446;SDS011;5271;44.422;26.092;2023-03-14T06:30:53;1.20;;;1.20;;
10446;SDS011;5271;44.422;26.092;2023-03-14T06:33:19;1.20;;;1.20;;
10446;SDS011;5271;44.422;26.092;2023-03-14T06:35:46;1.20;;;1.20;;
10446;SDS011;5271;44.422;26.092;2023-03-14T06:38:14;1.20;;;1.20;;
10446;SDS011;5271;44.422;26.092;2023-03-14T06:40:41;1.20;;;1.20;;
10446;SDS011;5271;44.422;26.092;2023-03-14T06:43:10;1.20;;;1.20;;
10446;SDS011;5271;44.422;26.092;2023-03-14T06:45:37;1.20;;;1.20;;
10446;SDS011;5271;44.422;26.092;2023-03-14T06:48:04;1.00;;;1.00;;
10446;SDS011;5271;44.422;26.092;2023-03-14T06:50:31;1.00;;;1.00;;
10446;SDS011;5271;44.422;26.092;2023-03-14T06:52:57;1.00;;;1.00;;
10446;SDS011;5271;44.422;26.092;2023-03-14T06:55:24;1.10;;;1.10;;
10446;SDS011;5271;44.422;26.092;2023-03-14T06:57:52;1.13;;;1.13;;
10446;SDS011;5271;44.422;26.092;2023-03-14T07:00:20;1.13;;;1.13;;
10446;SDS011;5271;44.422;26.092;2023-03-14T07:02:47;1.07;;;1.07;;
10446;SDS011;5271;44.422;26.092;2023-03-14T07:05:14;1.20;;;1.20;;
10446;SDS011;5271;44.422;26.092;2023-03-14T07:07:41;1.20;;;1.20;;
10446;SDS011;5271;44.422;26.092;2023-03-14T07:10:09;1.20;;;1.20;;
10446;SDS011;5271;44.422;26.092;2023-03-14T07:12:36;1.20;;;1.20;;
10446;SDS011;5271;44.422;26.092;2023-03-14T07:15:03;1.27;;;1.27;;
10446;SDS011;5271;44.422;26.092;2023-03-14T07:17:32;1.20;;;1.20;;
10446;SDS011;5271;44.422;26.092;2023-03-14T07:19:59;1.27;;;1.27;;
10446;SDS011;5271;44.422;26.092;2023-03-14T07:22:26;1.20;;;1.20;;
10446;SDS011;5271;44.422;26.092;2023-03-14T07:24:52;1.17;;;1.17;;
10446;SDS011;5271;44.422;26.092;2023-03-14T07:27:19;1.20;;;1.20;;
10446;SDS011;5271;44.422;26.092;2023-03-14T07:29:46;1.20;;;1.20;;
10446;SDS011;5271;44.422;26.092;2023-03-14T07:32:13;1.30;;;1.30;;
10446;SDS011;5271;44.422;26.092;2023-03-14T07:34:41;1.30;;;1.30;;
10446;SDS011;5271;44.422;26.092;2023-03-14T07:37:08;1.30;;;1.30;;
10446;SDS011;5271;44.422;26.092;2023-03-14T07:39:35;1.20;;;1.20;;
10446;SDS011;5271;44.422;26.092;2023-03-14T07:42:02;1.30;;;1.30;;
10446;SDS011;5271;44.422;26.092;2023-03-14T07:44:29;1.20;;;1.20;;
10446;SDS011;5271;44.422;26.092;2023-03-14T07:46:56;1.13;;;1.13;;
10446;SDS011;5271;44.422;26.092;2023-03-14T07:49:23;1.20;;;1.20;;
10446;SDS011;5271;44.422;26.092;2023-03-14T07:51:51;1.30;;;1.30;;
10446;SDS011;5271;44.422;26.092;2023-03-14T07:54:18;1.20;;;1.20;;
10446;SDS011;5271;44.422;26.092;2023-03-14T07:56:45;1.23;;;1.23;;
10446;SDS011;5271;44.422;26.092;2023-03-14T07:59:12;1.10;;;1.10;;
10446;SDS011;5271;44.422;26.092;2023-03-14T08:01:39;1.20;;;1.20;;
10446;SDS011;5271;44.422;26.092;2023-03-14T08:04:06;1.27;;;1.27;;
10446;SDS011;5271;44.422;26.092;2023-03-14T08:06:32;1.20;;;1.20;;
10446;SDS011;5271;44.422;26.092;2023-03-14T08:09:02;1.10;;;1.10;;
10446;SDS011;5271;44.422;26.092;2023-03-14T08:11:29;1.20;;;1.20;;
10446;SDS011;5271;44.422;26.092;2023-03-14T08:13:56;1.20;;;1.20;;
10446;SDS011;5271;44.422;26.092;2023-03-14T08:16:23;1.20;;;1.20;;
10446;SDS011;5271;44.422;26.092;2023-03-14T08:18:50;1.20;;;1.20;;
10446;SDS011;5271;44.422;26.092;2023-03-14T08:21:17;1.10;;;1.10;;
10446;SDS011;5271;44.422;26.092;2023-03-14T08:23:44;1.20;;;1.20;;
10446;SDS011;5271;44.422;26.092;2023-03-14T08:26:12;1.17;;;1.17;;
10446;SDS011;5271;44.422;26.092;2023-03-14T08:28:39;1.20;;;1.20;;
10446;SDS011;5271;44.422;26.092;2023-03-14T08:31:06;1.30;;;1.30;;
10446;SDS011;5271;44.422;26.092;2023-03-14T08:33:33;1.20;;;1.20;;
10446;SDS011;5271;44.422;26.092;2023-03-14T08:36:00;1.20;;;1.20;;
10446;SDS011;5271;44.422;26.092;2023-03-14T08:38:27;1.20;;;1.20;;
10446;SDS011;5271;44.422;26.092;2023-03-14T08:40:57;1.20;;;1.20;;
10446;SDS011;5271;44.422;26.092;2023-03-14T08:43:26;1.30;;;1.30;;
10446;SDS011;5271;44.422;26.092;2023-03-14T08:45:53;1.20;;;1.20;;
10446;SDS011;5271;44.422;26.092;2023-03-14T08:48:19;1.20;;;1.20;;
10446;SDS011;5271;44.422;26.092;2023-03-14T08:50:46;1.30;;;1.30;;
10446;SDS011;5271;44.422;26.092;2023-03-14T08:53:13;1.20;;;1.20;;
10446;SDS011;5271;44.422;26.092;2023-03-14T08:55:40;1.30;;;1.30;;
10446;SDS011;5271;44.422;26.092;2023-03-14T08:58:07;1.30;;;1.30;;
10446;SDS011;5271;44.422;26.092;2023-03-14T09:00:35;1.27;;;1.27;;
10446;SDS011;5271;44.422;26.092;2023-03-14T09:03:02;1.20;;;1.20;;
10446;SDS011;5271;44.422;26.092;2023-03-14T09:05:32;1.20;;;1.20;;
10446;SDS011;5271;44.422;26.092;2023-03-14T09:07:59;1.20;;;1.20;;
10446;SDS011;5271;44.422;26.092;2023-03-14T09:10:26;1.20;;;1.20;;
10446;SDS011;5271;44.422;26.092;2023-03-14T09:12:53;1.20;;;1.20;;
10446;SDS011;5271;44.422;26.092;2023-03-14T09:15:20;1.20;;;1.20;;
10446;SDS011;5271;44.422;26.092;2023-03-14T09:17:48;1.20;;;1.20;;
10446;SDS011;5271;44.422;26.092;2023-03-14T09:20:15;1.20;;;1.20;;
10446;SDS011;5271;44.422;26.092;2023-03-14T09:22:42;1.20;;;1.20;;
10446;SDS011;5271;44.422;26.092;2023-03-14T09:25:09;1.20;;;1.20;;
10446;SDS011;5271;44.422;26.092;2023-03-14T09:27:36;1.20;;;1.20;;
10446;SDS011;5271;44.422;26.092;2023-03-14T09:30:03;1.20;;;1.20;;
10446;SDS011;5271;44.422;26.092;2023-03-14T09:32:31;1.30;;;1.30;;
10446;SDS011;5271;44.422;26.092;2023-03-14T09:34:59;1.30;;;1.30;;
10446;SDS011;5271;44.422;26.092;2023-03-14T09:37:26;1.20;;;1.20;;
10446;SDS011;5271;44.422;26.092;2023-03-14T09:39:53;1.30;;;1.30;;
10446;SDS011;5271;44.422;26.092;2023-03-14T09:42:21;1.40;;;1.40;;
10446;SDS011;5271;44.422;26.092;2023-03-14T09:44:53;1.37;;;1.37;;
10446;SDS011;5271;44.422;26.092;2023-03-14T09:47:22;1.40;;;1.40;;
10446;SDS011;5271;44.422;26.092;2023-03-14T09:49:50;1.40;;;1.40;;
10446;SDS011;5271;44.422;26.092;2023-03-14T09:52:20;1.30;;;1.30;;
10446;SDS011;5271;44.422;26.092;2023-03-14T09:54:50;1.50;;;1.50;;
10446;SDS011;5271;44.422;26.092;2023-03-14T09:57:19;1.50;;;1.50;;
10446;SDS011;5271;44.422;26.092;2023-03-14T09:59:48;1.40;;;1.40;;
10446;SDS011;5271;44.422;26.092;2023-03-14T10:02:18;1.40;;;1.40;;
10446;SDS011;5271;44.422;26.092;2023-03-14T10:04:47;1.50;;;1.50;;
10446;SDS011;5271;44.422;26.092;2023-03-14T10:07:16;1.40;;;1.40;;
10446;SDS011;5271;44.422;26.092;2023-03-14T10:09:49;1.30;;;1.30;;
10446;SDS011;5271;44.422;26.092;2023-03-14T10:12:17;1.30;;;1.30;;
10446;SDS011;5271;44.422;26.092;2023-03-14T10:14:45;1.30;;;1.30;;
10446;SDS011;5271;44.422;26.092;2023-03-14T10:17:14;1.30;;;1.30;;
10446;SDS011;5271;44.422;26.092;2023-03-14T10:19:53;1.40;;;1.40;;
10446;SDS011;5271;44.422;26.092;2023-03-14T10:22:23;1.50;;;1.50;;
10446;SDS011;5271;44.422;26.092;2023-03-14T10:24:54;1.30;;;1.30;;
10446;SDS011;5271;44.422;26.092;2023-03-14T10:27:27;1.30;;;1.30;;
10446;SDS011;5271;44.422;26.092;2023-03-14T10:29:56;1.30;;;1.30;;
10446;SDS011;5271;44.422;26.092;2023-03-14T10:32:28;1.30;;;1.30;;
10446;SDS011;5271;44.422;26.092;2023-03-14T10:35:04;1.30;;;1.30;;
10446;SDS011;5271;44.422;26.092;2023-03-14T10:37:47;1.30;;;1.30;;
10446;SDS011;5271;44.422;26.092;2023-03-14T10:40:19;1.30;;;1.30;;
10446;SDS011;5271;44.422;26.092;2023-03-14T10:42:51;1.30;;;1.30;;
10446;SDS011;5271;44.422;26.092;2023-03-14T10:45:31;1.30;;;1.30;;
10446;SDS011;5271;44.422;26.092;2023-03-14T10:48:15;1.30;;;1.30;;
10446;SDS011;5271;44.422;26.092;2023-03-14T10:50:50;1.20;;;1.20;;
10446;SDS011;5271;44.422;26.092;2023-03-14T10:53:21;1.30;;;1.30;;
10446;SDS011;5271;44.422;26.092;2023-03-14T10:55:49;1.30;;;1.30;;
10446;SDS011;5271;44.422;26.092;2023-03-14T10:58:17;1.20;;;1.20;;
10446;SDS011;5271;44.422;26.092;2023-03-14T11:00:46;1.20;;;1.20;;
10446;SDS011;5271;44.422;26.092;2023-03-14T11:03:18;1.20;;;1.20;;
10446;SDS011;5271;44.422;26.092;2023-03-14T11:05:46;1.20;;;1.20;;
10446;SDS011;5271;44.422;26.092;2023-03-14T11:08:20;1.17;;;1.17;;
10446;SDS011;5271;44.422;26.092;2023-03-14T11:10:54;1.20;;;1.20;;
10446;SDS011;5271;44.422;26.092;2023-03-14T11:13:29;1.10;;;1.10;;
10446;SDS011;5271;44.422;26.092;2023-03-14T11:16:04;1.10;;;1.10;;
10446;SDS011;5271;44.422;26.092;2023-03-14T11:18:57;1.10;;;1.10;;
10446;SDS011;5271;44.422;26.092;2023-03-14T11:21:35;1.10;;;1.10;;
10446;SDS011;5271;44.422;26.092;2023-03-14T11:24:13;1.10;;;1.10;;
10446;SDS011;5271;44.422;26.092;2023-03-14T11:27:06;1.10;;;1.10;;
10446;SDS011;5271;44.422;26.092;2023-03-14T11:29:40;1.10;;;1.10;;
10446;SDS011;5271;44.422;26.092;2023-03-14T11:32:12;1.10;;;1.10;;
10446;SDS011;5271;44.422;26.092;2023-03-14T11:34:44;1.00;;;1.00;;
10446;SDS011;5271;44.422;26.092;2023-03-14T11:37:17;1.00;;;1.00;;
10446;SDS011;5271;44.422;26.092;2023-03-14T11:39:52;1.00;;;1.00;;
10446;SDS011;5271;44.422;26.092;2023-03-14T11:42:24;1.00;;;1.00;;
10446;SDS011;5271;44.422;26.092;2023-03-14T11:44:54;1.00;;;1.00;;
10446;SDS011;5271;44.422;26.092;2023-03-14T11:47:22;1.00;;;1.00;;
10446;SDS011;5271;44.422;26.092;2023-03-14T11:49:53;0.90;;;0.90;;
10446;SDS011;5271;44.422;26.092;2023-03-14T11:52:28;0.90;;;0.90;;
10446;SDS011;5271;44.422;26.092;2023-03-14T11:55:00;0.90;;;0.90;;
10446;SDS011;5271;44.422;26.092;2023-03-14T11:57:33;1.00;;;1.00;;
10446;SDS011;5271;44.422;26.092;2023-03-14T12:00:03;0.90;;;0.90;;
10446;SDS011;5271;44.422;26.092;2023-03-14T12:02:40;0.90;;;0.90;;
10446;SDS011;5271;44.422;26.092;2023-03-14T12:05:24;0.90;;;0.90;;
10446;SDS011;5271;44.422;26.092;2023-03-14T12:08:11;1.00;;;1.00;;
10446;SDS011;5271;44.422;26.092;2023-03-14T12:10:58;0.90;;;0.90;;
10446;SDS011;5271;44.422;26.092;2023-03-14T12:13:31;1.00;;;1.00;;
10446;SDS011;5271;44.422;26.092;2023-03-14T12:16:03;0.90;;;0.90;;
10446;SDS011;5271;44.422;26.092;2023-03-14T12:18:33;1.03;;;1.03;;
10446;SDS011;5271;44.422;26.092;2023-03-14T12:21:04;1.00;;;1.00;;
10446;SDS011;5271;44.422;26.092;2023-03-14T12:23:36;1.00;;;1.00;;
10446;SDS011;5271;44.422;26.092;2023-03-14T12:26:17;0.90;;;0.90;;
10446;SDS011;5271;44.422;26.092;2023-03-14T12:28:50;0.97;;;0.97;;
10446;SDS011;5271;44.422;26.092;2023-03-14T12:31:41;1.00;;;1.00;;
10446;SDS011;5271;44.422;26.092;2023-03-14T12:34:25;1.00;;;1.00;;
10446;SDS011;5271;44.422;26.092;2023-03-14T12:36:55;0.90;;;0.90;;
10446;SDS011;5271;44.422;26.092;2023-03-14T12:39:33;1.00;;;1.00;;
10446;SDS011;5271;44.422;26.092;2023-03-14T12:42:04;0.90;;;0.90;;
10446;SDS011;5271;44.422;26.092;2023-03-14T12:44:43;0.90;;;0.90;;
10446;SDS011;5271;44.422;26.092;2023-03-14T12:50:15;1.00;;;1.00;;
10446;SDS011;5271;44.422;26.092;2023-03-14T12:52:49;0.90;;;0.90;;
10446;SDS011;5271;44.422;26.092;2023-03-14T12:55:26;0.90;;;0.90;;
10446;SDS011;5271;44.422;26.092;2023-03-14T12:58:00;1.00;;;1.00;;
10446;SDS011;5271;44.422;26.092;2023-03-14T13:00:38;1.00;;;1.00;;
10446;SDS011;5271;44.422;26.092;2023-03-14T13:03:13;0.90;;;0.90;;
10446;SDS011;5271;44.422;26.092;2023-03-14T13:05:51;0.90;;;0.90;;
10446;SDS011;5271;44.422;26.092;2023-03-14T13:08:32;1.00;;;1.00;;
10446;SDS011;5271;44.422;26.092;2023-03-14T13:11:01;0.90;;;0.90;;
10446;SDS011;5271;44.422;26.092;2023-03-14T13:13:30;1.00;;;1.00;;
10446;SDS011;5271;44.422;26.092;2023-03-14T13:16:01;1.00;;;1.00;;
10446;SDS011;5271;44.422;26.092;2023-03-14T13:18:30;1.00;;;1.00;;
10446;SDS011;5271;44.422;26.092;2023-03-14T13:21:03;1.10;;;1.10;;
10446;SDS011;5271;44.422;26.092;2023-03-14T13:23:33;1.10;;;1.10;;
10446;SDS011;5271;44.422;26.092;2023-03-14T13:26:02;1.20;;;1.20;;
10446;SDS011;5271;44.422;26.092;2023-03-14T13:28:29;1.20;;;1.20;;
10446;SDS011;5271;44.422;26.092;2023-03-14T13:30:58;1.20;;;1.20;;
10446;SDS011;5271;44.422;26.092;2023-03-14T13:33:28;1.20;;;1.20;;
10446;SDS011;5271;44.422;26.092;2023-03-14T13:35:55;1.10;;;1.10;;
10446;SDS011;5271;44.422;26.092;2023-03-14T13:38:24;1.10;;;1.10;;
10446;SDS011;5271;44.422;26.092;2023-03-14T13:40:53;1.10;;;1.10;;
10446;SDS011;5271;44.422;26.092;2023-03-14T13:43:25;1.10;;;1.10;;
10446;SDS011;5271;44.422;26.092;2023-03-14T13:45:56;1.10;;;1.10;;
10446;SDS011;5271;44.422;26.092;2023-03-14T13:48:31;1.10;;;1.10;;
10446;SDS011;5271;44.422;26.092;2023-03-14T13:51:02;1.00;;;1.00;;
10446;SDS011;5271;44.422;26.092;2023-03-14T13:53:31;1.00;;;1.00;;
10446;SDS011;5271;44.422;26.092;2023-03-14T13:56:01;1.00;;;1.00;;
10446;SDS011;5271;44.422;26.092;2023-03-14T13:58:30;1.00;;;1.00;;
10446;SDS011;5271;44.422;26.092;2023-03-14T14:01:05;1.10;;;1.10;;
10446;SDS011;5271;44.422;26.092;2023-03-14T14:03:40;1.10;;;1.10;;
10446;SDS011;5271;44.422;26.092;2023-03-14T14:06:11;1.10;;;1.10;;
10446;SDS011;5271;44.422;26.092;2023-03-14T14:08:48;1.10;;;1.10;;
10446;SDS011;5271;44.422;26.092;2023-03-14T14:11:18;1.10;;;1.10;;
10446;SDS011;5271;44.422;26.092;2023-03-14T14:13:58;1.00;;;1.00;;
10446;SDS011;5271;44.422;26.092;2023-03-14T14:16:25;1.10;;;1.10;;
10446;SDS011;5271;44.422;26.092;2023-03-14T14:18:55;1.10;;;1.10;;
10446;SDS011;5271;44.422;26.092;2023-03-14T14:21:24;1.10;;;1.10;;
10446;SDS011;5271;44.422;26.092;2023-03-14T14:23:52;1.03;;;1.03;;
10446;SDS011;5271;44.422;26.092;2023-03-14T14:26:19;1.10;;;1.10;;
10446;SDS011;5271;44.422;26.092;2023-03-14T14:28:46;1.00;;;1.00;;
10446;SDS011;5271;44.422;26.092;2023-03-14T14:31:23;1.00;;;1.00;;
10446;SDS011;5271;44.422;26.092;2023-03-14T14:33:55;1.00;;;1.00;;
10446;SDS011;5271;44.422;26.092;2023-03-14T14:36:24;1.10;;;1.10;;
10446;SDS011;5271;44.422;26.092;2023-03-14T14:38:57;1.03;;;1.03;;
10446;SDS011;5271;44.422;26.092;2023-03-14T14:41:29;1.07;;;1.07;;
10446;SDS011;5271;44.422;26.092;2023-03-14T14:43:58;1.00;;;1.00;;
10446;SDS011;5271;44.422;26.092;2023-03-14T14:46:26;1.00;;;1.00;;
10446;SDS011;5271;44.422;26.092;2023-03-14T14:48:57;1.00;;;1.00;;
10446;SDS011;5271;44.422;26.092;2023-03-14T14:51:31;1.03;;;1.03;;
10446;SDS011;5271;44.422;26.092;2023-03-14T14:54:04;1.00;;;1.00;;
10446;SDS011;5271;44.422;26.092;2023-03-14T14:56:38;0.97;;;0.97;;
10446;SDS011;5271;44.422;26.092;2023-03-14T14:59:06;1.10;;;1.10;;
10446;SDS011;5271;44.422;26.092;2023-03-14T15:01:46;1.10;;;1.10;;
10446;SDS011;5271;44.422;26.092;2023-03-14T15:04:16;1.10;;;1.10;;
10446;SDS011;5271;44.422;26.092;2023-03-14T15:06:43;1.10;;;1.10;;
10446;SDS011;5271;44.422;26.092;2023-03-14T15:09:13;1.13;;;1.13;;
10446;SDS011;5271;44.422;26.092;2023-03-14T15:11:41;1.00;;;1.00;;